createdAt,value
2018-11-20T00:01:38.460Z,22.13
2018-11-20T00:04:39.117Z,21.97
2018-11-20T00:07:39.770Z,21.57
2018-11-20T00:10:32.351Z,21.80
2018-11-20T00:13:24.709Z,22.73
2018-11-20T00:16:24.099Z,22.07
2018-11-20T00:19:23.798Z,21.00
2018-11-20T00:22:25.856Z,20.70
2018-11-20T00:25:31.637Z,20.63
2018-11-20T00:28:36.873Z,20.70
2018-11-20T00:31:36.262Z,20.60
2018-11-20T00:34:36.889Z,20.63
2018-11-20T00:37:37.245Z,20.73
2018-11-20T00:40:36.678Z,20.23
2018-11-20T00:43:36.084Z,21.73
2018-11-20T00:46:35.451Z,21.40
2018-11-20T00:49:35.079Z,21.10
2018-11-20T00:52:40.268Z,20.13
2018-11-20T00:55:39.814Z,20.87
2018-11-20T00:58:30.002Z,20.10
2018-11-20T01:01:29.819Z,19.40
2018-11-20T01:04:29.543Z,19.43
2018-11-20T01:07:28.900Z,20.00
2018-11-20T01:10:24.234Z,18.67
2018-11-20T01:13:23.900Z,19.07
2018-11-20T01:16:23.404Z,19.97
2018-11-20T01:19:23.083Z,19.40
2018-11-20T01:22:23.823Z,19.40
2018-11-20T01:25:24.134Z,18.37
2018-11-20T01:28:26.267Z,19.07
2018-11-20T01:31:25.391Z,19.17
2018-11-20T01:34:25.655Z,19.37
2018-11-20T01:37:26.034Z,19.27
2018-11-20T01:40:25.949Z,20.23
2018-11-20T01:43:18.955Z,18.90
2018-11-20T01:46:18.057Z,18.70
2018-11-20T01:49:17.566Z,18.67
2018-11-20T01:52:04.547Z,18.17
2018-11-20T01:55:04.196Z,19.43
2018-11-20T01:58:04.856Z,20.37
2018-11-20T02:01:04.124Z,18.37
2018-11-20T02:04:04.830Z,18.97
2018-11-20T02:06:55.984Z,19.03
2018-11-20T02:09:55.693Z,19.73
2018-11-20T02:12:54.984Z,19.13
2018-11-20T02:15:54.259Z,19.70
2018-11-20T02:18:54.819Z,19.27
2018-11-20T02:21:54.074Z,18.90
2018-11-20T02:24:59.383Z,19.13
2018-11-20T02:27:58.963Z,18.70
2018-11-20T02:30:58.607Z,18.57
2018-11-20T02:33:55.244Z,19.93
2018-11-20T02:36:54.276Z,18.53
2018-11-20T02:39:53.927Z,19.50
2018-11-20T02:42:54.296Z,19.40
2018-11-20T02:45:56.398Z,19.30
2018-11-20T02:48:58.839Z,19.17
2018-11-20T02:51:59.532Z,19.47
2018-11-20T02:54:58.460Z,18.73
2018-11-20T02:57:57.386Z,18.43
2018-11-20T03:00:50.637Z,18.67
2018-11-20T03:03:52.891Z,19.20
2018-11-20T03:06:57.955Z,19.27
2018-11-20T03:09:57.488Z,17.60
2018-11-20T03:13:03.745Z,18.30
2018-11-20T03:19:06.630Z,19.40
2018-11-20T03:22:09.406Z,18.67
2018-11-20T03:25:09.346Z,18.47
2018-11-20T03:28:08.956Z,18.87
2018-11-20T03:31:03.210Z,19.37
2018-11-20T03:34:05.714Z,19.23
2018-11-20T03:37:08.679Z,18.50
2018-11-20T03:40:08.419Z,18.30
2018-11-20T03:43:05.129Z,18.90
2018-11-20T03:46:05.830Z,19.40
2018-11-20T03:49:05.719Z,20.60
2018-11-20T03:51:55.419Z,18.37
2018-11-20T03:54:55.003Z,18.67
2018-11-20T03:57:57.277Z,19.30
2018-11-20T04:00:57.096Z,18.47
2018-11-20T04:03:57.651Z,20.23
2018-11-20T04:06:55.564Z,19.03
2018-11-20T04:09:55.897Z,19.93
2018-11-20T04:12:49.979Z,19.47
2018-11-20T04:15:55.527Z,20.70
2018-11-20T04:18:55.303Z,20.53
2018-11-20T04:21:54.782Z,20.10
2018-11-20T04:24:54.086Z,20.07
2018-11-20T04:27:56.248Z,19.43
2018-11-20T04:31:01.831Z,20.83
2018-11-20T04:34:04.323Z,20.60
2018-11-20T04:37:03.770Z,20.27
2018-11-20T04:40:03.107Z,19.70
2018-11-20T04:43:03.949Z,20.20
2018-11-20T04:46:04.420Z,21.37
2018-11-20T04:49:04.984Z,20.37
2018-11-20T04:52:05.687Z,21.13
2018-11-20T04:55:02.643Z,21.90
2018-11-20T04:58:02.489Z,21.40
2018-11-20T05:01:02.993Z,21.57
2018-11-20T05:04:01.999Z,21.33
2018-11-20T05:07:07.048Z,22.43
2018-11-20T05:10:09.872Z,22.23
2018-11-20T05:13:10.824Z,21.43
2018-11-20T05:16:11.774Z,21.80
2018-11-20T05:19:11.282Z,21.07
2018-11-20T05:22:10.743Z,20.83
2018-11-20T05:25:10.661Z,22.27
2018-11-20T05:28:10.416Z,22.13
2018-11-20T05:31:11.426Z,20.30
2018-11-20T05:34:10.519Z,20.40
2018-11-20T05:37:10.166Z,21.53
2018-11-20T05:40:12.083Z,20.27
2018-11-20T05:43:11.021Z,21.80
2018-11-20T05:46:10.926Z,20.73
2018-11-20T05:49:10.912Z,20.30
2018-11-20T05:52:09.984Z,21.63
2018-11-20T05:55:00.482Z,22.10
2018-11-20T05:58:01.567Z,22.10
2018-11-20T06:01:00.427Z,21.30
2018-11-20T06:03:59.677Z,21.33
2018-11-20T06:06:59.145Z,21.77
2018-11-20T06:09:59.099Z,21.23
2018-11-20T06:12:58.875Z,21.63
2018-11-20T06:15:59.911Z,21.83
2018-11-20T06:19:02.323Z,21.97
2018-11-20T06:22:02.830Z,24.90
2018-11-20T06:25:02.481Z,22.33
2018-11-20T06:28:02.196Z,25.33
2018-11-20T06:31:03.027Z,23.10
2018-11-20T06:34:00.728Z,22.33
2018-11-20T06:37:00.005Z,23.87
2018-11-20T06:40:04.929Z,25.13
2018-11-20T06:43:04.491Z,24.47
2018-11-20T06:45:58.733Z,28.00
2018-11-20T06:49:01.062Z,27.90
2018-11-20T06:52:02.321Z,27.80
2018-11-20T06:54:52.889Z,26.53
2018-11-20T06:57:51.128Z,30.93
2018-11-20T07:00:50.545Z,31.57
2018-11-20T07:03:49.845Z,32.50
2018-11-20T07:06:55.190Z,28.47
2018-11-20T07:09:57.620Z,29.00
2018-11-20T07:12:57.041Z,30.07
2018-11-20T07:15:54.838Z,37.37
2018-11-20T07:18:57.087Z,33.17
2018-11-20T07:21:57.879Z,37.23
2018-11-20T07:24:57.551Z,29.00
2018-11-20T07:27:57.957Z,27.67
2018-11-20T07:30:56.814Z,27.97
2018-11-20T07:33:56.085Z,24.97
2018-11-20T07:36:55.882Z,24.50
2018-11-20T07:39:55.075Z,24.13
2018-11-20T07:42:54.912Z,24.70
2018-11-20T07:45:57.568Z,25.73
2018-11-20T07:48:59.777Z,26.93
2018-11-20T07:52:00.612Z,26.30
2018-11-20T07:55:00.008Z,27.20
2018-11-20T07:58:00.448Z,27.10
2018-11-20T08:01:01.259Z,25.83
2018-11-20T08:04:06.870Z,25.60
2018-11-20T08:07:06.750Z,24.83
2018-11-20T08:10:01.854Z,24.93
2018-11-20T08:13:01.184Z,24.80
2018-11-20T08:16:03.961Z,24.97
2018-11-20T08:19:03.791Z,24.27
2018-11-20T08:24:53.401Z,25.00
2018-11-20T08:27:52.567Z,25.67
2018-11-20T08:30:52.367Z,25.20
2018-11-20T08:33:52.139Z,24.97
2018-11-20T08:36:55.090Z,25.37
2018-11-20T08:39:55.558Z,24.57
2018-11-20T08:42:56.102Z,29.23
2018-11-20T08:45:55.650Z,26.27
2018-11-20T08:48:55.547Z,26.90
2018-11-20T08:51:55.371Z,24.70
2018-11-20T08:54:50.417Z,24.43
2018-11-20T08:57:49.407Z,25.17
2018-11-20T09:00:52.281Z,25.23
2018-11-20T09:06:51.769Z,24.43
2018-11-20T09:09:52.467Z,25.37
2018-11-20T09:12:54.458Z,24.43
2018-11-20T09:15:53.896Z,24.37
2018-11-20T09:18:56.627Z,22.90
2018-11-20T09:22:02.360Z,23.10
2018-11-20T09:25:01.979Z,23.20
2018-11-20T09:28:02.541Z,24.57
2018-11-20T09:31:01.838Z,23.47
2018-11-20T09:34:03.860Z,25.73
2018-11-20T09:37:03.773Z,25.03
2018-11-20T09:40:03.135Z,23.73
2018-11-20T09:43:02.429Z,25.07
2018-11-20T09:46:04.840Z,24.07
2018-11-20T09:49:07.020Z,22.63
2018-11-20T09:52:04.619Z,23.20
2018-11-20T09:55:03.728Z,23.67
2018-11-20T09:58:03.071Z,23.17
2018-11-20T10:01:02.664Z,21.63
2018-11-20T10:04:03.242Z,22.60
2018-11-20T10:07:02.825Z,22.77
2018-11-20T10:10:02.025Z,22.43
2018-11-20T10:13:01.593Z,21.57
2018-11-20T10:16:03.874Z,21.97
2018-11-20T10:22:28.197Z,22.17
2018-11-20T10:25:27.344Z,22.93
2018-11-20T10:28:28.391Z,23.77
2018-11-20T10:31:27.976Z,21.70
2018-11-20T10:34:28.233Z,22.27
2018-11-20T10:37:27.429Z,22.50
2018-11-20T10:40:27.477Z,21.03
2018-11-20T10:43:25.150Z,20.73
2018-11-20T10:46:24.446Z,20.40
2018-11-20T10:49:24.012Z,21.93
2018-11-20T10:52:25.941Z,21.40
2018-11-20T10:55:28.611Z,21.30
2018-11-20T10:58:28.325Z,20.93
2018-11-20T11:01:27.988Z,20.97
2018-11-20T11:04:25.780Z,20.70
2018-11-20T11:07:25.068Z,21.07
2018-11-20T11:10:20.246Z,20.57
2018-11-20T11:13:19.342Z,21.70
2018-11-20T11:16:18.518Z,22.57
2018-11-20T11:19:18.392Z,21.13
2018-11-20T11:22:07.749Z,21.57
2018-11-20T11:28:29.254Z,20.90
2018-11-20T11:31:29.321Z,19.87
2018-11-20T11:34:30.705Z,21.27
2018-11-20T11:37:31.706Z,20.70
2018-11-20T11:40:31.768Z,23.13
2018-11-20T11:46:54.233Z,21.07
2018-11-20T11:49:54.340Z,21.50
2018-11-20T11:52:52.726Z,20.50
2018-11-20T11:59:18.485Z,20.43
2018-11-20T12:05:16.103Z,19.93
2018-11-20T12:08:07.625Z,20.93
2018-11-20T12:11:13.658Z,19.93
2018-11-20T12:17:39.353Z,22.87
2018-11-20T12:24:02.631Z,27.57
2018-11-20T12:27:04.488Z,32.10
2018-11-20T12:33:29.559Z,21.07
2018-11-20T12:36:32.821Z,22.33
2018-11-20T12:42:41.000Z,21.50
2018-11-20T12:45:40.572Z,21.37
2018-11-20T12:48:40.377Z,20.13
2018-11-20T12:51:46.367Z,21.00
2018-11-20T12:54:43.497Z,20.77
2018-11-20T12:57:43.264Z,20.80
2018-11-20T13:00:39.446Z,20.80
2018-11-20T13:03:38.730Z,20.73
2018-11-20T13:06:41.514Z,20.30
2018-11-20T13:09:21.926Z,19.20
2018-11-20T13:12:21.336Z,20.77
2018-11-20T13:15:20.973Z,19.93
2018-11-20T13:18:23.071Z,20.83
2018-11-20T13:21:24.038Z,21.77
2018-11-20T13:24:13.617Z,19.87
2018-11-20T13:27:11.725Z,20.17
2018-11-20T13:30:12.227Z,19.27
2018-11-20T13:33:15.893Z,19.93
2018-11-20T13:36:15.799Z,18.57
2018-11-20T13:39:16.077Z,19.60
2018-11-20T13:42:18.137Z,19.53
2018-11-20T13:45:18.603Z,17.87
2018-11-20T13:51:25.811Z,19.23
2018-11-20T13:54:31.940Z,17.87
2018-11-20T13:57:31.094Z,17.30
2018-11-20T14:00:33.523Z,18.27
2018-11-20T14:03:42.776Z,18.73
2018-11-20T14:06:36.640Z,19.60
2018-11-20T14:09:39.125Z,19.37
2018-11-20T14:12:39.695Z,18.50
2018-11-20T14:15:45.229Z,18.20
2018-11-20T14:18:50.470Z,18.50
2018-11-20T14:21:50.397Z,19.83
2018-11-20T14:24:55.407Z,20.73
2018-11-20T14:27:49.064Z,19.90
2018-11-20T14:30:50.704Z,19.40
2018-11-20T14:33:31.324Z,19.10
2018-11-20T14:36:30.699Z,22.50
2018-11-20T14:39:30.401Z,21.07
2018-11-20T14:42:25.976Z,19.33
2018-11-20T14:45:28.273Z,21.60
2018-11-20T14:48:20.682Z,20.67
2018-11-20T14:51:23.055Z,20.03
2018-11-20T14:54:29.049Z,20.67
2018-11-20T14:57:18.938Z,20.40
2018-11-20T15:00:18.300Z,21.00
2018-11-20T15:03:23.813Z,21.47
2018-11-20T15:06:23.077Z,21.00
2018-11-20T15:09:22.888Z,20.40
2018-11-20T15:12:28.218Z,20.30
2018-11-20T15:15:28.128Z,23.30
2018-11-20T15:18:27.685Z,23.60
2018-11-20T15:21:28.419Z,24.20
2018-11-20T15:24:30.827Z,23.70
2018-11-20T15:27:49.856Z,28.10
2018-11-20T15:30:52.601Z,25.30
2018-11-20T15:34:12.263Z,25.13
2018-11-20T15:37:11.337Z,32.50
2018-11-20T15:40:14.202Z,27.70
2018-11-20T15:43:13.740Z,27.37
2018-11-20T15:46:13.324Z,24.03
2018-11-20T15:49:14.914Z,24.67
2018-11-20T15:52:16.769Z,22.60
2018-11-20T15:55:13.148Z,20.57
2018-11-20T15:58:34.080Z,22.13
2018-11-20T16:01:34.711Z,21.33
2018-11-20T16:04:33.849Z,21.03
2018-11-20T16:07:28.074Z,22.13
2018-11-20T16:10:29.002Z,23.20
2018-11-20T16:13:28.558Z,22.13
2018-11-20T16:16:27.845Z,22.50
2018-11-20T16:19:30.546Z,24.63
2018-11-20T16:22:30.949Z,23.77
2018-11-20T16:25:30.551Z,23.30
2018-11-20T16:28:32.721Z,23.00
2018-11-20T16:31:31.840Z,23.73
2018-11-20T16:34:34.957Z,23.10
2018-11-20T16:37:34.563Z,22.40
2018-11-20T16:40:40.500Z,22.63
2018-11-20T16:43:40.161Z,22.87
2018-11-20T16:46:42.345Z,23.70
2018-11-20T16:49:47.685Z,23.33
2018-11-20T16:52:47.496Z,24.77
2018-11-20T16:55:47.496Z,25.30
2018-11-20T16:58:53.546Z,24.87
2018-11-20T17:01:53.487Z,24.30
2018-11-20T17:04:52.527Z,24.10
2018-11-20T17:07:56.168Z,24.57
2018-11-20T17:10:52.152Z,24.60
2018-11-20T17:13:54.891Z,24.20
2018-11-20T17:16:57.811Z,24.80
2018-11-20T17:19:57.419Z,23.63
2018-11-20T17:22:57.795Z,25.73
2018-11-20T17:25:59.709Z,35.20
2018-11-20T17:29:01.901Z,30.80
2018-11-20T17:32:03.464Z,45.10
2018-11-20T17:35:04.887Z,37.90
2018-11-20T17:38:06.873Z,30.70
2018-11-20T17:41:31.683Z,26.87
2018-11-20T17:44:53.581Z,25.60
2018-11-20T17:47:52.092Z,26.43
2018-11-20T17:50:51.517Z,25.60
2018-11-20T17:53:51.067Z,28.67
2018-11-20T17:56:56.726Z,30.43
2018-11-20T17:59:53.784Z,28.63
2018-11-20T18:02:52.972Z,30.23
2018-11-20T18:05:52.786Z,27.70
2018-11-20T18:08:53.081Z,27.50
2018-11-20T18:11:55.451Z,27.17
2018-11-20T18:15:01.093Z,28.10
2018-11-20T18:18:22.474Z,27.00
2018-11-20T18:21:21.610Z,25.93
2018-11-20T18:24:23.430Z,27.17
2018-11-20T18:27:22.263Z,27.67
2018-11-20T18:30:25.361Z,27.67
2018-11-20T18:33:24.380Z,27.23
2018-11-20T18:36:25.131Z,27.83
2018-11-20T18:39:25.009Z,30.20
2018-11-20T18:42:21.048Z,30.30
2018-11-20T18:45:19.771Z,30.17
2018-11-20T18:48:19.553Z,29.83
2018-11-20T18:51:20.342Z,27.97
2018-11-20T18:54:23.307Z,28.07
2018-11-20T18:57:24.044Z,41.87
2018-11-20T19:03:42.841Z,41.33
2018-11-20T19:06:45.571Z,39.47
2018-11-20T19:09:44.798Z,37.47
2018-11-20T19:12:45.676Z,45.53
2018-11-20T19:15:47.258Z,38.57
2018-11-20T19:18:37.975Z,34.07
2018-11-20T19:21:59.094Z,32.77
2018-11-20T19:24:58.185Z,31.73
2018-11-20T19:27:57.802Z,33.50
2018-11-20T19:30:52.803Z,39.87
2018-11-20T19:33:55.189Z,40.13
2018-11-20T19:36:55.771Z,39.10
2018-11-20T19:39:59.354Z,32.33
2018-11-20T19:43:04.813Z,30.37
2018-11-20T19:46:05.817Z,29.50
2018-11-20T19:49:25.554Z,31.57
2018-11-20T19:52:26.442Z,27.07
2018-11-20T19:55:27.295Z,26.37
2018-11-20T19:58:27.001Z,26.37
2018-11-20T20:01:26.975Z,28.27
2018-11-20T20:04:26.735Z,27.67
2018-11-20T20:07:22.092Z,26.20
2018-11-20T20:10:21.644Z,29.13
2018-11-20T20:13:21.411Z,30.10
2018-11-20T20:16:14.578Z,32.23
2018-11-20T20:19:15.698Z,36.07
2018-11-20T20:22:15.433Z,35.87
2018-11-20T20:25:17.703Z,35.53
2018-11-20T20:31:22.475Z,38.30
2018-11-20T20:34:14.491Z,38.63
2018-11-20T20:37:16.746Z,36.77
2018-11-20T20:40:22.780Z,34.47
2018-11-20T20:43:21.882Z,33.13
2018-11-20T20:46:22.469Z,33.73
2018-11-20T20:49:25.053Z,34.70
2018-11-20T20:52:27.865Z,33.20
2018-11-20T20:55:27.329Z,33.00
2018-11-20T20:58:27.022Z,33.77
2018-11-20T21:01:27.502Z,30.57
2018-11-20T21:04:32.460Z,31.30
2018-11-20T21:07:31.514Z,32.73
2018-11-20T21:10:33.872Z,32.83
2018-11-20T21:13:36.259Z,31.40
2018-11-20T21:16:35.952Z,32.57
2018-11-20T21:19:35.183Z,31.27
2018-11-20T21:22:40.424Z,30.27
2018-11-20T21:25:39.885Z,30.23
2018-11-20T21:28:39.209Z,29.53
2018-11-20T21:31:38.727Z,29.50
2018-11-20T21:34:27.188Z,28.13
2018-11-20T21:37:26.654Z,29.30
2018-11-20T21:40:29.184Z,30.43
2018-11-20T21:43:31.423Z,30.13
2018-11-20T21:46:29.140Z,32.40
2018-11-20T21:49:34.594Z,34.57
2018-11-20T21:52:40.011Z,41.30
2018-11-20T21:55:32.378Z,33.90
2018-11-20T21:58:31.485Z,32.60
2018-11-20T22:01:11.526Z,32.77
2018-11-20T22:04:11.121Z,30.37
2018-11-20T22:06:59.754Z,29.23
2018-11-20T22:10:05.111Z,30.40
2018-11-20T22:13:07.438Z,29.53
2018-11-20T22:16:07.139Z,31.27
2018-11-20T22:19:06.776Z,29.33
2018-11-20T22:22:05.916Z,29.43
2018-11-20T22:25:05.317Z,30.17
2018-11-20T22:31:29.817Z,28.87
2018-11-20T22:34:48.874Z,32.13
2018-11-20T22:37:54.211Z,29.50
2018-11-20T22:40:53.832Z,31.47
2018-11-20T22:43:47.053Z,30.70
2018-11-20T22:46:49.212Z,31.50
2018-11-20T22:49:49.712Z,30.37
2018-11-20T22:52:48.990Z,30.70
2018-11-20T22:55:48.231Z,30.47
2018-11-20T22:58:47.624Z,30.03
2018-11-20T23:01:50.346Z,28.73
2018-11-20T23:04:50.200Z,30.00
2018-11-20T23:07:50.686Z,31.03
2018-11-20T23:10:31.050Z,29.93
2018-11-20T23:13:10.937Z,30.10
2018-11-20T23:15:50.809Z,30.23
2018-11-20T23:18:31.625Z,29.83
2018-11-20T23:21:12.280Z,29.63
2018-11-20T23:23:52.787Z,30.63
2018-11-20T23:26:33.484Z,29.37
2018-11-20T23:29:14.055Z,30.07
2018-11-20T23:31:53.940Z,29.10
2018-11-20T23:34:34.793Z,29.27
2018-11-20T23:37:15.378Z,29.97
2018-11-20T23:39:55.479Z,30.07
2018-11-20T23:42:36.225Z,27.97
2018-11-20T23:45:16.981Z,29.17
2018-11-20T23:47:57.487Z,29.07
2018-11-20T23:50:37.460Z,28.13
2018-11-20T23:53:17.929Z,30.20
2018-11-20T23:55:57.885Z,28.73
2018-11-20T23:58:38.542Z,29.50
